Time;durP1;ratioP1;P1;durP2;ratioP2;P2;SDS_P1;SDS_P2;PMS_P1;PMS_P2;Temp;Humidity;BMP_temperature;BMP_pressure;BME280_temperature;BME280_humidity;BME280_pressure;Samples;Min_cycle;Max_cycle;Signal;HPM_P1;HPM_P2
2021/09/11 00:02:13;;;;;;;81.05;52.90;;;;;;;17.02;83.29;100211.22;5107990;28;20020;-73
2021/09/11 00:04:39;;;;;;;88.57;55.08;;;;;;;17.05;82.91;100209.34;5107720;28;20528;-72
2021/09/11 00:07:04;;;;;;;75.32;50.28;;;;;;;17.05;83.11;100204.09;5107786;28;20383;-72
2021/09/11 00:09:30;;;;;;;82.93;53.10;;;;;;;17.09;82.95;100210.94;5107644;28;20050;-72
2021/09/11 00:11:55;;;;;;;87.07;56.03;;;;;;;17.07;82.91;100202.28;5107305;28;20028;-72
2021/09/11 00:14:20;;;;;;;91.47;56.30;;;;;;;17.11;82.79;100204.81;5107839;28;20083;-72
2021/09/11 00:16:46;;;;;;;80.22;52.70;;;;;;;17.15;82.88;100209.88;5107659;28;20024;-72
2021/09/11 00:19:11;;;;;;;83.13;55.58;;;;;;;17.17;82.75;100207.19;5107520;28;20028;-72
2021/09/11 00:21:38;;;;;;;87.55;56.88;;;;;;;17.16;82.82;100208.94;5107297;28;20399;-71
2021/09/11 00:24:05;;;;;;;74.57;50.95;;;;;;;17.15;82.85;100204.63;5107533;28;20027;-71
2021/09/11 00:26:30;;;;;;;80.82;53.97;;;;;;;17.17;82.72;100197.53;5107112;28;20079;-71
2021/09/11 00:28:56;;;;;;;80.55;51.80;;;;;;;17.19;82.67;100206.22;5107537;28;20046;-70
2021/09/11 00:31:21;;;;;;;78.80;49.90;;;;;;;17.17;82.48;100197.53;5107290;28;20044;-70
2021/09/11 00:33:46;;;;;;;79.57;50.40;;;;;;;17.14;82.42;100199.44;5107325;28;20020;-70
2021/09/11 00:36:12;;;;;;;76.90;50.95;;;;;;;17.13;82.47;100202.97;5107255;28;20522;-70
2021/09/11 00:38:37;;;;;;;76.22;50.55;;;;;;;17.11;82.50;100199.56;5107136;28;20028;-70
2021/09/11 00:41:02;;;;;;;70.88;49.78;;;;;;;17.12;82.63;100201.25;5107177;28;20374;-69
2021/09/11 00:43:28;;;;;;;74.72;50.63;;;;;;;17.07;82.69;100197.03;5106914;28;20028;-67
2021/09/11 00:45:54;;;;;;;78.35;51.95;;;;;;;17.04;82.51;100194.53;5106942;28;20468;-70
2021/09/11 00:48:19;;;;;;;75.97;50.60;;;;;;;17.01;83.15;100196.41;5107240;28;20031;-68
2021/09/11 00:50:46;;;;;;;80.13;51.90;;;;;;;16.94;83.15;100188.78;5106646;28;20036;-68
2021/09/11 00:53:13;;;;;;;92.47;57.10;;;;;;;16.90;83.61;100199.44;5107209;28;20054;-68
2021/09/11 00:55:42;;;;;;;100.60;56.55;;;;;;;16.87;83.66;100189.09;5106262;28;20423;-68
2021/09/11 00:58:07;;;;;;;91.25;57.70;;;;;;;16.84;83.89;100196.16;5106712;28;20024;-68
2021/09/11 01:00:32;;;;;;;100.13;58.30;;;;;;;16.81;83.94;100192.78;5105964;28;20035;-69
2021/09/11 01:02:58;;;;;;;111.43;61.40;;;;;;;16.81;84.31;100195.41;5106711;28;20028;-69
2021/09/11 01:05:23;;;;;;;93.35;56.05;;;;;;;16.77;84.17;100184.19;5088189;28;20107;-68
2021/09/11 01:07:49;;;;;;;86.88;54.60;;;;;;;16.75;84.66;100191.25;5106457;28;20088;-69
2021/09/11 01:10:15;;;;;;;82.40;50.83;;;;;;;16.69;84.91;100186.25;5106645;28;20051;-69
2021/09/11 01:12:41;;;;;;;86.90;57.08;;;;;;;16.63;85.17;100178.63;5106728;28;20057;-72
2021/09/11 01:15:10;;;;;;;88.60;53.50;;;;;;;16.66;85.20;100186.38;5106964;28;20451;-69
2021/09/11 01:17:38;;;;;;;92.30;54.15;;;;;;;16.66;85.42;100181.13;5106505;28;20039;-69
2021/09/11 01:20:04;;;;;;;84.35;52.53;;;;;;;16.66;85.24;100178.50;5087721;28;20100;-68
2021/09/11 01:22:29;;;;;;;80.55;50.80;;;;;;;16.63;85.42;100176.84;5106502;28;20028;-68
2021/09/11 01:24:59;;;;;;;72.05;48.03;;;;;;;16.64;85.32;100177.69;5106340;28;20020;-69
2021/09/11 01:27:26;;;;;;;78.22;51.67;;;;;;;16.60;85.50;100175.19;5105814;28;20042;-68
2021/09/11 01:29:54;;;;;;;74.00;50.25;;;;;;;16.65;85.56;100168.91;5106246;28;20077;-69
2021/09/11 01:32:20;;;;;;;74.40;49.28;;;;;;;16.63;85.41;100165.50;5106282;28;20069;-68
2021/09/11 01:34:45;;;;;;;72.93;50.53;;;;;;;16.62;85.63;100169.91;5106278;28;20048;-68
2021/09/11 01:37:11;;;;;;;75.60;50.55;;;;;;;16.66;85.53;100165.41;5106024;28;20498;-69
2021/09/11 01:39:37;;;;;;;71.82;47.92;;;;;;;16.71;85.39;100166.91;5106104;28;20028;-68
2021/09/11 01:42:04;;;;;;;71.90;47.33;;;;;;;16.68;85.36;100160.94;5105853;28;20023;-69
2021/09/11 01:44:30;;;;;;;69.38;48.25;;;;;;;16.71;85.33;100163.44;5106029;28;20028;-69
2021/09/11 01:46:55;;;;;;;71.85;49.95;;;;;;;16.72;85.23;100165.16;5105855;28;20119;-69
2021/09/11 01:49:20;;;;;;;69.13;45.20;;;;;;;16.71;85.02;100161.69;5105977;28;20035;-69
2021/09/11 01:51:46;;;;;;;65.30;43.30;;;;;;;16.68;85.21;100161.78;5105752;28;20027;-69
2021/09/11 01:54:11;;;;;;;61.92;45.80;;;;;;;16.66;85.17;100160.16;5106103;28;20040;-69
2021/09/11 01:56:37;;;;;;;70.20;48.92;;;;;;;16.63;85.43;100155.03;5105776;28;20440;-69
2021/09/11 01:59:02;;;;;;;70.65;47.33;;;;;;;16.61;85.45;100157.72;5105960;28;20080;-69
2021/09/11 02:01:27;;;;;;;65.90;46.15;;;;;;;16.62;85.58;100153.31;5105720;28;20483;-69
2021/09/11 02:03:53;;;;;;;70.93;47.20;;;;;;;16.62;85.47;100148.06;5105629;28;20024;-69
2021/09/11 02:06:18;;;;;;;64.75;41.92;;;;;;;16.57;85.50;100149.09;5105803;28;20052;-68
2021/09/11 02:08:43;;;;;;;59.38;41.28;;;;;;;16.60;85.34;100153.38;5105791;28;20375;-68
2021/09/11 02:11:09;;;;;;;61.58;41.72;;;;;;;16.58;85.58;100156.03;5105806;28;20023;-68
2021/09/11 02:13:34;;;;;;;58.45;41.78;;;;;;;16.54;85.62;100157.09;5105636;28;20024;-68
2021/09/11 02:16:02;;;;;;;60.80;43.78;;;;;;;16.52;85.49;100147.59;5105583;28;20091;-68
2021/09/11 02:18:27;;;;;;;63.17;44.28;;;;;;;16.54;85.29;100157.09;5105823;28;20031;-68
2021/09/11 02:20:55;;;;;;;62.47;45.92;;;;;;;16.48;85.78;100152.91;5105370;28;20043;-68
2021/09/11 02:23:20;;;;;;;68.47;48.95;;;;;;;16.51;85.83;100159.81;5105500;28;20388;-68
2021/09/11 02:25:46;;;;;;;71.15;48.08;;;;;;;16.53;85.98;100159.75;5105342;28;20244;-68
2021/09/11 02:28:11;;;;;;;72.30;49.22;;;;;;;16.53;85.75;100150.13;5105454;28;20031;-68
2021/09/11 02:30:36;;;;;;;72.68;51.10;;;;;;;16.57;85.65;100149.09;5105534;28;20551;-68
2021/09/11 02:33:02;;;;;;;69.90;47.15;;;;;;;16.60;85.31;100151.59;5105663;28;20024;-67
2021/09/11 02:35:27;;;;;;;69.72;48.10;;;;;;;16.58;85.48;100144.72;5105414;28;20431;-68
2021/09/11 02:37:53;;;;;;;72.55;50.15;;;;;;;16.59;85.29;100151.66;5105490;28;20043;-69
2021/09/11 02:40:18;;;;;;;72.13;49.95;;;;;;;16.56;85.54;100157.03;5105708;28;20104;-68
2021/09/11 02:42:44;;;;;;;71.53;47.88;;;;;;;16.54;85.61;100157.09;5105328;28;20089;-68
2021/09/11 02:45:09;;;;;;;72.22;48.92;;;;;;;16.53;85.53;100152.75;5105325;28;20081;-68
2021/09/11 02:47:35;;;;;;;69.30;47.15;;;;;;;16.53;85.46;100150.13;5105295;28;20074;-68
2021/09/11 02:50:00;;;;;;;75.03;50.88;;;;;;;16.51;85.40;100151.97;5105466;28;20511;-68
2021/09/11 02:52:25;;;;;;;73.53;50.35;;;;;;;16.49;85.75;100151.16;5105175;28;20020;-69
2021/09/11 02:54:51;;;;;;;71.72;48.00;;;;;;;16.49;85.67;100143.28;5105377;28;20024;-69
2021/09/11 02:57:16;;;;;;;68.53;49.20;;;;;;;16.48;85.56;100145.03;5104992;28;20471;-69
2021/09/11 02:59:41;;;;;;;65.03;45.67;;;;;;;16.35;85.67;100126.34;5104959;28;20119;-69
2021/09/11 03:02:07;;;;;;;66.65;45.17;;;;;;;16.45;85.81;100145.16;5105339;28;20028;-68
2021/09/11 03:04:32;;;;;;;65.60;44.25;;;;;;;16.43;85.57;100147.00;5105038;28;20115;-68
2021/09/11 03:06:58;;;;;;;74.75;49.55;;;;;;;16.38;86.16;100148.06;5105026;28;20036;-69
2021/09/11 03:09:23;;;;;;;80.50;51.40;;;;;;;16.38;86.32;100143.69;5105392;28;20028;-69
2021/09/11 03:11:48;;;;;;;75.70;48.95;;;;;;;16.35;86.31;100154.28;5104979;28;20024;-68
2021/09/11 03:14:14;;;;;;;73.95;49.10;;;;;;;16.38;86.28;100146.31;5105153;28;20032;-68
2021/09/11 03:16:39;;;;;;;72.18;48.88;;;;;;;16.41;85.91;100143.56;5105034;28;20036;-69
2021/09/11 03:19:04;;;;;;;73.45;50.67;;;;;;;16.41;85.86;100142.72;5105122;28;20023;-68
2021/09/11 03:21:30;;;;;;;74.15;50.65;;;;;;;16.42;85.94;100141.81;5104758;28;20048;-68
2021/09/11 03:23:55;;;;;;;74.40;47.65;;;;;;;16.43;85.85;100143.53;5107854;28;20034;-69
2021/09/11 03:26:20;;;;;;;74.20;49.65;;;;;;;16.39;85.89;100141.94;5108556;28;20030;-68
2021/09/11 03:28:46;;;;;;;69.32;46.65;;;;;;;16.40;86.02;100141.00;5108612;28;20078;-68
2021/09/11 03:31:11;;;;;;;72.85;51.70;;;;;;;16.42;85.73;100137.41;5108615;28;20115;-69
2021/09/11 03:33:36;;;;;;;70.65;48.55;;;;;;;16.44;85.58;100139.97;5108397;28;20020;-69
2021/09/11 03:36:02;;;;;;;71.35;49.50;;;;;;;16.42;86.00;100137.41;5090280;28;20024;-69
2021/09/11 03:38:27;;;;;;;76.97;51.28;;;;;;;16.41;85.68;100135.72;5108631;28;20081;-69
2021/09/11 03:40:53;;;;;;;71.50;45.15;;;;;;;16.43;85.59;100130.41;5108331;28;20031;-69
2021/09/11 03:43:18;;;;;;;73.50;50.63;;;;;;;16.40;85.70;100133.16;5090119;28;20455;-69
2021/09/11 03:45:43;;;;;;;72.90;50.15;;;;;;;16.35;85.84;100126.34;5107997;28;20020;-70
2021/09/11 03:48:09;;;;;;;79.43;51.55;;;;;;;16.34;86.01;100129.84;5090188;28;20023;-70
2021/09/11 03:50:34;;;;;;;73.25;50.65;;;;;;;16.35;85.97;100128.97;5108186;28;20075;-68
2021/09/11 03:52:59;;;;;;;77.57;50.67;;;;;;;16.41;86.08;100132.22;5108328;28;20035;-69
2021/09/11 03:55:25;;;;;;;75.38;52.15;;;;;;;16.45;85.89;100132.06;5089861;28;20059;-69
2021/09/11 03:57:50;;;;;;;75.05;50.35;;;;;;;16.45;85.70;100129.44;5089488;28;20034;-69
2021/09/11 04:00:16;;;;;;;75.00;51.08;;;;;;;16.46;85.65;100119.81;5108227;28;20028;-69
2021/09/11 04:02:41;;;;;;;71.57;49.90;;;;;;;16.50;85.73;100131.91;5089733;28;20028;-69
2021/09/11 04:05:07;;;;;;;73.32;49.00;;;;;;;16.50;85.46;100131.06;5107956;28;20020;-69
2021/09/11 04:07:33;;;;;;;71.95;48.75;;;;;;;16.47;85.65;100124.16;5107831;28;20035;-68
2021/09/11 04:09:58;;;;;;;71.55;50.17;;;;;;;16.50;85.75;100124.06;5107770;28;20103;-68
2021/09/11 04:12:23;;;;;;;76.25;50.85;;;;;;;16.52;85.36;100124.84;5107587;28;20078;-68
2021/09/11 04:14:49;;;;;;;75.15;49.70;;;;;;;16.50;85.26;100131.06;5107870;28;20016;-68
2021/09/11 04:17:14;;;;;;;74.35;51.70;;;;;;;16.46;85.40;100132.94;5107787;28;20019;-69
2021/09/11 04:19:39;;;;;;;78.55;52.20;;;;;;;16.43;85.87;100127.81;5107559;28;20507;-69
2021/09/11 04:22:05;;;;;;;80.70;53.83;;;;;;;16.42;85.67;100128.72;5107512;28;20058;-69
2021/09/11 04:24:30;;;;;;;90.47;56.00;;;;;;;16.41;85.86;100127.84;5107671;28;20490;-69
2021/09/11 04:26:55;;;;;;;82.78;53.17;;;;;;;16.40;85.73;100125.31;5107165;28;20088;-69
2021/09/11 04:29:21;;;;;;;82.57;53.90;;;;;;;16.45;85.67;100136.47;5107630;28;20024;-69
2021/09/11 04:31:46;;;;;;;88.50;53.45;;;;;;;16.46;85.53;100123.31;5107302;28;20026;-69
2021/09/11 04:34:11;;;;;;;78.40;52.75;;;;;;;16.51;85.52;100127.50;5106254;28;20028;-69
2021/09/11 04:36:37;;;;;;;79.53;52.80;;;;;;;16.54;85.54;100136.13;5107068;28;20020;-69
2021/09/11 04:39:02;;;;;;;81.03;52.72;;;;;;;16.57;85.21;100132.50;5107417;28;20032;-69
2021/09/11 04:41:27;;;;;;;83.07;52.50;;;;;;;16.52;85.41;100137.09;5106929;28;20020;-68
2021/09/11 04:43:53;;;;;;;82.00;52.95;;;;;;;16.52;85.46;100137.94;5107020;28;20032;-69
2021/09/11 04:46:18;;;;;;;79.10;50.55;;;;;;;16.51;85.56;100135.38;5106939;28;20628;-69
2021/09/11 04:48:43;;;;;;;84.28;52.20;;;;;;;16.48;85.52;100131.13;5107005;28;20028;-69
2021/09/11 04:51:09;;;;;;;75.20;49.90;;;;;;;16.50;85.59;100138.91;5106941;28;20020;-69
2021/09/11 04:53:34;;;;;;;87.45;53.95;;;;;;;16.49;85.45;100130.19;5107084;28;20040;-69
2021/09/11 04:55:59;;;;;;;76.80;49.97;;;;;;;16.52;85.78;100137.94;5106922;28;20051;-69
2021/09/11 04:58:25;;;;;;;78.90;49.42;;;;;;;16.55;85.67;100129.94;5106763;28;20098;-69
2021/09/11 05:00:51;;;;;;;76.18;48.97;;;;;;;16.57;85.85;100135.13;5088610;28;20020;-69
2021/09/11 05:03:16;;;;;;;78.90;48.72;;;;;;;16.57;85.93;100133.38;5106912;28;20024;-69
2021/09/11 05:05:41;;;;;;;82.90;50.10;;;;;;;16.59;86.02;100135.94;5106680;28;20047;-69
2021/09/11 05:08:07;;;;;;;82.88;47.53;;;;;;;16.62;85.82;100138.44;5106705;28;20012;-69
2021/09/11 05:10:32;;;;;;;80.97;50.67;;;;;;;16.61;85.82;100131.50;5107014;28;20027;-69
2021/09/11 05:12:57;;;;;;;82.78;50.45;;;;;;;16.59;86.21;100131.56;5107003;28;20111;-69
2021/09/11 05:15:25;;;;;;;81.85;50.38;;;;;;;16.59;86.38;100139.44;5106779;28;20074;-69
2021/09/11 05:17:50;;;;;;;79.88;49.58;;;;;;;16.64;86.01;100135.75;5106519;28;20035;-69
2021/09/11 05:20:16;;;;;;;76.03;49.30;;;;;;;16.64;86.10;100127.91;5106122;28;20046;-69
2021/09/11 05:22:41;;;;;;;93.65;53.67;;;;;;;16.70;86.09;100131.16;5088184;28;20506;-69
2021/09/11 05:25:12;;;;;;;91.40;53.30;;;;;;;16.71;85.92;100132.84;5106270;28;20024;-69
2021/09/11 05:27:39;;;;;;;95.75;51.40;;;;;;;16.72;86.14;100125.84;5106238;28;20031;-69
2021/09/11 05:30:05;;;;;;;107.53;52.47;;;;;;;16.72;85.94;100128.47;5106198;28;20058;-69
2021/09/11 05:32:30;;;;;;;104.55;53.67;;;;;;;16.73;85.98;100127.53;5106126;28;20020;-69
2021/09/11 05:34:56;;;;;;;114.00;51.92;;;;;;;16.75;86.18;100124.84;5106205;28;20330;-69
2021/09/11 05:37:21;;;;;;;111.95;52.60;;;;;;;16.76;85.85;100119.56;5087857;28;20028;-69
2021/09/11 05:39:46;;;;;;;115.40;55.20;;;;;;;16.76;86.23;100124.81;5106314;28;20028;-69
2021/09/11 05:42:12;;;;;;;110.38;56.15;;;;;;;16.75;86.31;100117.88;5105896;28;20028;-69
2021/09/11 05:44:38;;;;;;;113.68;54.58;;;;;;;16.73;86.23;100112.69;5105883;28;20020;-70
2021/09/11 05:47:03;;;;;;;115.35;55.85;;;;;;;16.79;86.28;100122.06;5105648;28;20035;-69
2021/09/11 05:49:29;;;;;;;100.45;55.45;;;;;;;16.84;86.30;100127.97;5105996;28;20028;-69
2021/09/11 05:51:54;;;;;;;102.22;52.83;;;;;;;16.89;86.28;100125.19;5105882;28;20034;-69
2021/09/11 05:54:20;;;;;;;110.10;53.28;;;;;;;16.97;86.39;100124.88;5105930;28;20049;-69
2021/09/11 05:56:45;;;;;;;98.75;52.92;;;;;;;17.05;86.14;100122.81;5087410;28;20053;-68
2021/09/11 05:59:11;;;;;;;91.50;50.00;;;;;;;17.12;86.26;100128.69;5106152;28;20035;-69
2021/09/11 06:01:36;;;;;;;96.60;50.65;;;;;;;17.20;86.01;100128.38;5105755;28;20031;-68
2021/09/11 06:04:01;;;;;;;88.32;49.53;;;;;;;17.27;85.76;100134.22;5105584;28;20024;-69
2021/09/11 06:06:27;;;;;;;87.63;46.58;;;;;;;17.31;85.96;100131.41;5105936;28;20035;-69
2021/09/11 06:08:52;;;;;;;83.90;47.78;;;;;;;17.39;85.85;100138.09;5105724;28;20499;-69
2021/09/11 06:11:17;;;;;;;112.55;52.58;;;;;;;17.42;85.43;100130.09;5105801;28;20020;-70
2021/09/11 06:13:43;;;;;;;89.22;45.63;;;;;;;17.38;85.42;100129.38;5105641;28;20020;-69
2021/09/11 06:16:08;;;;;;;95.85;49.42;;;;;;;17.46;85.44;100134.28;5105574;28;20076;-70
2021/09/11 06:18:34;;;;;;;90.20;47.95;;;;;;;17.46;85.19;100136.91;5105799;28;20108;-70
2021/09/11 06:21:00;;;;;;;90.20;48.88;;;;;;;17.46;85.59;100134.28;5105525;28;20046;-70
2021/09/11 06:23:27;;;;;;;96.47;46.92;;;;;;;17.52;84.87;100143.69;5105788;28;20062;-70
2021/09/11 06:25:53;;;;;;;114.40;49.13;;;;;;;17.53;84.86;100145.41;5087407;28;20016;-70
2021/09/11 06:28:24;;;;;;;151.18;50.80;;;;;;;17.52;84.96;100144.56;5105478;28;20092;-70
2021/09/11 06:30:49;;;;;;;161.13;47.20;;;;;;;17.53;84.75;100146.25;5105653;28;20027;-70
2021/09/11 06:33:14;;;;;;;161.77;49.85;;;;;;;17.51;84.92;100148.09;5105599;28;20024;-70
2021/09/11 06:35:40;;;;;;;217.15;53.13;;;;;;;17.48;84.90;100139.50;5105792;28;20028;-70
2021/09/11 06:38:05;;;;;;;198.73;52.88;;;;;;;17.49;85.11;100149.09;5087275;28;20053;-70
2021/09/11 06:40:30;;;;;;;165.55;50.20;;;;;;;17.50;85.02;100145.53;5105315;28;20051;-71
2021/09/11 06:42:56;;;;;;;240.68;56.80;;;;;;;17.49;84.99;100142.06;5105295;28;20057;-76
2021/09/11 06:45:21;;;;;;;237.10;49.58;;;;;;;17.50;84.52;100146.41;5105227;28;20488;-67
2021/09/11 06:47:46;;;;;;;240.85;54.92;;;;;;;17.48;84.75;100142.97;5105437;28;20020;-68
2021/09/11 06:50:12;;;;;;;158.40;50.33;;;;;;;17.47;84.82;100146.53;5105270;28;20020;-69
2021/09/11 06:52:37;;;;;;;279.75;55.33;;;;;;;17.49;84.98;100155.19;5105413;28;20028;-69
2021/09/11 06:55:03;;;;;;;274.15;55.63;;;;;;;17.47;84.98;100146.53;5105148;28;20372;-69
2021/09/11 06:57:29;;;;;;;258.60;54.97;;;;;;;17.46;85.03;100150.91;5105759;28;20028;-69
2021/09/11 06:59:54;;;;;;;287.65;57.25;;;;;;;17.46;85.31;100150.03;5109009;28;20108;-70
2021/09/11 07:02:22;;;;;;;317.58;57.90;;;;;;;17.48;85.09;100150.00;5109269;28;20425;-69
2021/09/11 07:04:48;;;;;;;244.57;54.53;;;;;;;17.50;85.25;100150.78;5109025;28;20016;-68
2021/09/11 07:07:16;;;;;;;216.90;52.65;;;;;;;17.53;85.30;100151.50;5109166;28;20396;-69
2021/09/11 07:09:41;;;;;;;138.57;51.97;;;;;;;17.55;85.40;100149.69;5109258;28;20024;-70
2021/09/11 07:12:07;;;;;;;146.70;51.67;;;;;;;17.57;85.50;100150.44;5108657;28;20349;-70
2021/09/11 07:14:32;;;;;;;200.60;54.67;;;;;;;17.59;85.42;100155.63;5108989;28;20035;-68
2021/09/11 07:16:58;;;;;;;153.07;51.25;;;;;;;17.67;85.08;100156.19;5108865;28;20487;-68
2021/09/11 07:19:23;;;;;;;244.40;51.95;;;;;;;17.70;84.70;100156.03;5108845;28;20023;-68
2021/09/11 07:21:49;;;;;;;268.95;59.22;;;;;;;17.68;84.81;100159.66;5108593;28;20055;-69
2021/09/11 07:24:20;;;;;;;327.08;61.95;;;;;;;17.62;84.46;100154.69;5108499;28;20035;-70
2021/09/11 07:26:45;;;;;;;215.73;56.10;;;;;;;17.58;84.75;100162.69;5089862;28;20020;-69
2021/09/11 07:29:13;;;;;;;197.70;54.55;;;;;;;17.53;84.98;100159.38;5090051;28;20035;-69
2021/09/11 07:31:43;;;;;;;224.60;59.15;;;;;;;17.52;85.15;100160.31;5108698;28;20020;-69
2021/09/11 07:34:08;;;;;;;202.70;58.95;;;;;;;17.52;85.05;100160.31;5108802;28;20016;-69
2021/09/11 07:36:35;;;;;;;199.10;57.20;;;;;;;17.55;85.04;100162.81;5108539;28;20031;-70
2021/09/11 07:39:00;;;;;;;160.10;55.90;;;;;;;17.53;85.21;100163.78;5108677;28;20035;-70
2021/09/11 07:41:26;;;;;;;145.32;54.15;;;;;;;17.49;85.54;100165.69;5108659;28;20375;-70
2021/09/11 07:43:51;;;;;;;157.88;54.58;;;;;;;17.51;85.44;100161.22;5108036;28;20027;-70
2021/09/11 07:46:16;;;;;;;138.55;50.60;;;;;;;17.49;85.39;100155.19;5108268;28;20051;-74
2021/09/11 07:48:42;;;;;;;146.65;54.53;;;;;;;17.44;85.81;100157.97;5108779;28;20026;-79
2021/09/11 07:51:10;;;;;;;158.00;55.75;;;;;;;17.46;85.87;100142.16;5108692;28;20024;-76
2021/09/11 07:53:36;;;;;;;127.63;50.85;;;;;;;17.44;86.10;100152.72;5108316;28;20024;-75
2021/09/11 07:56:02;;;;;;;150.35;56.03;;;;;;;17.43;85.83;100150.16;5108170;28;20020;-75
2021/09/11 07:58:28;;;;;;;165.30;58.90;;;;;;;17.32;86.54;100151.47;5089733;28;20111;-74
2021/09/11 08:00:55;;;;;;;137.23;52.67;;;;;;;17.39;86.60;100154.72;5107888;28;20027;-75
2021/09/11 08:03:21;;;;;;;196.75;63.90;;;;;;;17.27;87.02;100144.72;5108088;28;20041;-75
2021/09/11 08:05:46;;;;;;;222.88;70.45;;;;;;;17.23;87.15;100146.63;5107908;28;20032;-75
2021/09/11 08:08:11;;;;;;;167.05;63.47;;;;;;;17.31;86.90;100151.53;5089170;28;20020;-73
2021/09/11 08:10:37;;;;;;;203.57;71.28;;;;;;;17.31;87.11;100151.53;5107456;28;20436;-73
2021/09/11 08:13:03;;;;;;;171.07;66.28;;;;;;;17.25;87.33;100157.91;5106942;28;20028;-72
2021/09/11 08:15:28;;;;;;;178.05;65.43;;;;;;;17.22;88.01;100156.25;5107528;28;20103;-72
2021/09/11 08:17:55;;;;;;;171.82;64.28;;;;;;;17.23;87.70;100157.09;5107422;28;20035;-72
2021/09/11 08:20:21;;;;;;;187.77;66.78;;;;;;;17.27;87.81;100161.31;5107436;28;20068;-71
2021/09/11 08:22:46;;;;;;;177.98;66.80;;;;;;;17.27;88.07;100163.09;5107315;28;20024;-72
2021/09/11 08:25:12;;;;;;;180.85;69.88;;;;;;;17.28;88.18;100163.03;5107351;28;20046;-71
2021/09/11 08:27:38;;;;;;;183.23;66.70;;;;;;;17.32;87.97;100155.88;5107040;28;20059;-71
2021/09/11 08:30:05;;;;;;;162.60;63.53;;;;;;;17.27;88.04;100156.06;5107448;28;20031;-71
2021/09/11 08:32:31;;;;;;;146.15;62.78;;;;;;;17.38;87.75;100157.41;5107279;28;20140;-71
2021/09/11 08:34:56;;;;;;;200.45;70.75;;;;;;;17.34;87.74;100147.03;5107517;28;20026;-73
2021/09/11 08:37:22;;;;;;;173.73;65.53;;;;;;;17.29;88.42;100146.34;5107057;28;20020;-72
2021/09/11 08:39:50;;;;;;;175.68;70.40;;;;;;;17.32;88.20;100161.97;5107043;28;20034;-71
2021/09/11 08:42:19;;;;;;;156.95;66.32;;;;;;;17.40;88.33;100155.53;5106686;28;20020;-71
2021/09/11 08:44:44;;;;;;;131.15;59.60;;;;;;;17.39;88.03;100167.84;5107153;28;20024;-71
2021/09/11 08:47:10;;;;;;;145.35;64.97;;;;;;;17.35;88.35;100161.00;5106725;28;20028;-71
2021/09/11 08:49:36;;;;;;;133.32;62.22;;;;;;;17.40;88.11;100166.91;5107232;28;20016;-71
2021/09/11 08:52:03;;;;;;;149.52;67.80;;;;;;;17.30;88.45;100170.84;5106561;28;20070;-71
2021/09/11 08:54:29;;;;;;;126.82;64.03;;;;;;;17.25;88.86;100157.91;5101952;28;20012;-71
2021/09/11 08:56:54;;;;;;;96.75;42.13;;;;;;;17.31;88.54;100155.03;5106207;28;20024;-70
2021/09/11 08:59:20;;;;;;;125.47;62.08;;;;;;;17.30;88.65;100173.47;5106737;28;20391;-71
2021/09/11 09:02:06;;;;;;;149.70;66.38;;;;;;;17.26;88.77;100170.09;5106819;28;20020;-71
2021/09/11 09:04:51;;;;;;;128.75;63.53;;;;;;;17.25;88.70;100157.03;5106470;28;20020;-71
2021/09/11 09:07:39;;;;;;;122.28;60.30;;;;;;;17.34;88.80;100168.03;5106425;28;20035;-71
2021/09/11 09:10:14;;;;;;;107.90;53.38;;;;;;;17.39;88.53;100169.59;5106490;28;20023;-71
2021/09/11 09:12:41;;;;;;;98.03;52.60;;;;;;;17.36;89.03;100173.22;5106342;28;20028;-69
2021/09/11 09:15:16;;;;;;;112.28;53.78;;;;;;;17.33;88.97;100171.53;5106667;28;20044;-68
2021/09/11 09:17:54;;;;;;;88.90;48.42;;;;;;;17.29;88.70;100169.97;5106484;28;20440;-68
2021/09/11 09:20:20;;;;;;;103.00;50.05;;;;;;;17.26;89.03;100172.72;5087353;28;20408;-68
2021/09/11 09:22:49;;;;;;;69.10;39.25;;;;;;;17.26;89.43;100166.63;5106054;28;20024;-69
2021/09/11 09:25:23;;;;;;;116.65;50.58;;;;;;;17.23;89.41;100162.34;5106005;28;20028;-70
2021/09/11 09:27:53;;;;;;;101.40;47.80;;;;;;;17.21;89.57;100162.41;5105697;28;20020;-69
2021/09/11 09:30:21;;;;;;;92.03;43.00;;;;;;;17.24;89.52;100171.91;5106067;28;20016;-70
2021/09/11 09:32:49;;;;;;;64.57;35.80;;;;;;;17.20;89.55;100170.34;5106385;28;20045;-69
2021/09/11 09:35:24;;;;;;;60.17;32.65;;;;;;;17.17;89.87;100166.06;5106032;28;20020;-69
2021/09/11 09:37:54;;;;;;;46.97;29.33;;;;;;;17.12;89.91;100162.78;5088150;28;20045;-69
2021/09/11 09:40:44;;;;;;;47.08;26.75;;;;;;;17.08;90.35;100162.03;5105880;28;20070;-69
2021/09/11 09:43:12;;;;;;;50.70;29.33;;;;;;;17.07;90.46;100159.47;5105557;28;20020;-69
2021/09/11 09:45:38;;;;;;;52.13;30.10;;;;;;;17.07;91.11;100160.31;5105959;28;20031;-69
2021/09/11 09:48:11;;;;;;;58.03;30.88;;;;;;;17.08;91.01;100151.56;5105441;28;20106;-69
2021/09/11 09:50:41;;;;;;;46.40;28.15;;;;;;;17.10;91.37;100154.13;5105554;28;20035;-70
2021/09/11 09:53:09;;;;;;;38.63;23.67;;;;;;;17.17;91.85;100149.50;5105297;28;20023;-69
2021/09/11 09:55:35;;;;;;;35.17;22.10;;;;;;;17.20;91.81;100139.69;5105490;28;20020;-69
2021/09/11 09:58:05;;;;;;;24.65;17.33;;;;;;;17.24;92.06;100123.88;5105475;28;20091;-68
2021/09/11 10:00:30;;;;;;;36.83;23.63;;;;;;;17.33;92.20;100134.81;5105847;28;20085;-69
2021/09/11 10:02:59;;;;;;;25.30;17.40;;;;;;;17.41;92.57;100134.50;5105789;28;20020;-69
2021/09/11 10:05:29;;;;;;;31.52;20.20;;;;;;;17.50;92.85;100132.41;5105461;28;20416;-69
2021/09/11 10:08:03;;;;;;;26.42;17.67;;;;;;;17.67;93.00;100136.94;5105306;28;20068;-68
2021/09/11 10:10:34;;;;;;;16.40;12.00;;;;;;;17.82;92.78;100127.56;5105515;28;20024;-69
2021/09/11 10:13:09;;;;;;;14.90;10.97;;;;;;;17.89;92.92;100122.91;5087090;28;20044;-69
2021/09/11 10:15:35;;;;;;;13.55;9.73;;;;;;;18.03;92.65;100125.78;5087401;28;20089;-69
2021/09/11 10:18:24;;;;;;;12.50;9.13;;;;;;;18.06;92.39;100112.50;5105298;28;20066;-68
2021/09/11 10:21:16;;;;;;;11.75;8.45;;;;;;;18.12;92.21;100121.91;5104929;28;20137;-67
2021/09/11 10:24:03;;;;;;;11.80;9.10;;;;;;;18.14;92.12;100125.31;5105551;28;20024;-67
2021/09/11 10:26:46;;;;;;;14.77;9.95;;;;;;;18.16;92.29;100127.88;5105054;28;20025;-67
2021/09/11 10:29:31;;;;;;;11.10;8.63;;;;;;;18.09;91.75;100125.50;5105405;28;20039;-67
2021/09/11 10:32:00;;;;;;;15.18;8.73;;;;;;;18.08;91.79;100128.19;5105728;28;20025;-67
2021/09/11 10:35:12;;;;;;;12.82;8.95;;;;;;;17.99;91.73;100126.81;5109435;28;20031;-67
2021/09/11 10:37:39;;;;;;;12.88;9.40;;;;;;;17.96;91.95;100126.94;5098326;28;20036;-66
2021/09/11 10:40:32;;;;;;;15.90;9.50;;;;;;;17.98;91.66;100130.38;5109429;28;20030;-67
2021/09/11 10:43:10;;;;;;;16.33;10.73;;;;;;;18.01;91.63;100122.34;5084663;28;20113;-67
2021/09/11 10:45:54;;;;;;;13.35;9.25;;;;;;;18.05;91.77;100126.53;5109471;28;20025;-67
2021/09/11 10:48:44;;;;;;;14.38;10.18;;;;;;;18.01;91.71;100122.34;5109562;28;20385;-68
2021/09/11 10:51:10;;;;;;;13.18;7.95;;;;;;;18.05;91.69;100134.41;5109384;28;20028;-68
2021/09/11 10:53:36;;;;;;;7.93;5.22;;;;;;;18.13;92.07;100134.09;5109466;28;20049;-68
2021/09/11 10:56:36;;;;;;;9.05;5.35;;;;;;;18.29;92.14;100134.28;5109538;28;20053;-68
2021/09/11 10:59:14;;;;;;;6.35;3.28;;;;;;;18.40;91.29;100135.59;5026647;28;20241;-67
2021/09/11 11:02:17;;;;;;;4.07;2.72;;;;;;;18.49;90.46;100142.19;5026349;28;20045;-66
2021/09/11 11:04:48;;;;;;;4.50;2.55;;;;;;;18.63;90.04;100136.28;5026451;28;20049;-66
2021/09/11 11:07:23;;;;;;;2.20;1.48;;;;;;;18.78;89.61;100143.47;5026300;28;20025;-66
2021/09/11 11:09:57;;;;;;;2.42;1.50;;;;;;;18.82;88.37;100133.63;5026624;28;20041;-68